createdAt,value
2022-09-27T00:01:36.583Z,13.89
2022-09-27T00:04:33.894Z,13.60
2022-09-27T00:07:31.444Z,13.49
2022-09-27T00:10:29.310Z,13.53
2022-09-27T00:13:27.270Z,13.60
2022-09-27T00:16:25.662Z,13.53
2022-09-27T00:19:25.722Z,13.53
2022-09-27T00:22:24.198Z,13.50
2022-09-27T00:25:21.103Z,13.33
2022-09-27T00:28:18.173Z,13.38
2022-09-27T00:31:21.133Z,13.39
2022-09-27T00:34:23.119Z,13.32
2022-09-27T00:37:20.773Z,13.41
2022-09-27T00:40:19.755Z,13.51
2022-09-27T00:43:21.831Z,13.61
2022-09-27T00:46:23.745Z,13.61
2022-09-27T00:49:24.456Z,13.49
2022-09-27T00:52:42.282Z,13.39
2022-09-27T00:55:42.138Z,13.47
2022-09-27T00:58:45.293Z,13.49
2022-09-27T01:01:42.214Z,13.49
2022-09-27T01:04:39.340Z,13.36
2022-09-27T01:07:36.247Z,13.38
2022-09-27T01:10:38.571Z,13.27
2022-09-27T01:13:59.241Z,13.47
2022-09-27T01:17:18.315Z,13.49
2022-09-27T01:20:35.123Z,13.51
2022-09-27T01:24:23.225Z,13.56
2022-09-27T01:27:48.879Z,13.42
2022-09-27T01:31:04.789Z,13.37
2022-09-27T01:34:05.162Z,13.42
2022-09-27T01:37:11.451Z,13.44
2022-09-27T01:40:15.112Z,13.53
2022-09-27T01:43:47.940Z,13.37
2022-09-27T01:46:50.259Z,13.29
2022-09-27T01:50:22.381Z,13.20
2022-09-27T01:53:36.417Z,13.14
2022-09-27T01:56:52.689Z,13.06
2022-09-27T01:59:59.914Z,12.98
2022-09-27T02:03:17.609Z,12.92
2022-09-27T02:06:55.278Z,12.76
2022-09-27T02:10:00.025Z,12.81
2022-09-27T02:13:28.404Z,12.93
2022-09-27T02:16:51.788Z,12.96
2022-09-27T02:20:19.402Z,13.10
2022-09-27T02:23:31.721Z,12.90
2022-09-27T02:26:38.079Z,12.83
2022-09-27T02:29:39.353Z,12.70
2022-09-27T02:32:37.204Z,12.70
2022-09-27T02:35:35.499Z,12.63
2022-09-27T02:38:33.032Z,12.53
2022-09-27T02:41:32.091Z,12.58
2022-09-27T02:44:28.939Z,12.60
2022-09-27T02:47:38.270Z,12.66
2022-09-27T02:51:07.116Z,12.73
2022-09-27T02:54:22.548Z,12.45
2022-09-27T02:58:15.776Z,12.54
2022-09-27T03:01:57.456Z,12.38
2022-09-27T03:05:07.220Z,12.43
2022-09-27T03:08:04.375Z,12.39
2022-09-27T03:11:01.278Z,12.56
2022-09-27T03:14:08.759Z,12.65
2022-09-27T03:17:10.146Z,12.53
2022-09-27T03:20:39.089Z,12.42
2022-09-27T03:23:39.273Z,12.42
2022-09-27T03:26:36.148Z,12.34
2022-09-27T03:29:32.937Z,12.27
2022-09-27T03:32:38.068Z,12.30
2022-09-27T03:35:56.155Z,12.40
2022-09-27T03:38:53.630Z,12.28
2022-09-27T03:41:51.337Z,12.17
2022-09-27T03:44:48.078Z,12.20
2022-09-27T03:47:45.062Z,12.16
2022-09-27T03:50:42.422Z,12.29
2022-09-27T03:53:39.128Z,12.20
2022-09-27T03:56:36.331Z,12.15
2022-09-27T03:59:33.371Z,12.09
2022-09-27T04:02:53.217Z,11.99
2022-09-27T04:05:54.138Z,12.11
2022-09-27T04:08:58.239Z,12.10
2022-09-27T04:12:05.156Z,12.08
2022-09-27T04:15:03.643Z,12.11
2022-09-27T04:18:33.423Z,12.17
2022-09-27T04:21:51.056Z,11.93
2022-09-27T04:24:48.183Z,11.77
2022-09-27T04:27:55.383Z,11.86
2022-09-27T04:30:54.288Z,12.00
2022-09-27T04:34:11.388Z,12.10
2022-09-27T04:37:08.448Z,12.14
2022-09-27T04:40:11.413Z,12.28
2022-09-27T04:43:08.452Z,12.24
2022-09-27T04:46:05.453Z,12.24
2022-09-27T04:49:02.547Z,12.35
2022-09-27T04:52:01.020Z,12.29
2022-09-27T04:54:58.213Z,12.30
2022-09-27T04:57:55.122Z,12.23
2022-09-27T05:00:58.145Z,12.26
2022-09-27T05:04:12.488Z,12.16
2022-09-27T05:07:13.455Z,12.28
2022-09-27T05:10:15.530Z,12.30
2022-09-27T05:13:12.496Z,12.22
2022-09-27T05:16:11.246Z,12.22
2022-09-27T05:19:34.658Z,12.17
2022-09-27T05:22:42.215Z,11.95
2022-09-27T05:25:39.179Z,11.88
2022-09-27T05:28:36.326Z,11.96
2022-09-27T05:31:33.471Z,11.80
2022-09-27T05:34:32.756Z,11.73
2022-09-27T05:37:31.420Z,11.82
2022-09-27T05:40:44.710Z,11.81
2022-09-27T05:43:42.594Z,11.70
2022-09-27T05:46:40.612Z,11.61
2022-09-27T05:49:37.583Z,11.68
2022-09-27T05:52:35.739Z,11.69
2022-09-27T05:55:33.364Z,11.61
2022-09-27T05:58:31.458Z,11.70
2022-09-27T06:01:41.739Z,11.66
2022-09-27T06:05:03.850Z,11.59
2022-09-27T06:08:22.332Z,11.81
2022-09-27T06:11:21.645Z,11.86
2022-09-27T06:14:20.922Z,11.82
2022-09-27T06:17:38.593Z,11.78
2022-09-27T06:20:46.394Z,11.89
2022-09-27T06:23:43.244Z,11.88
2022-09-27T06:26:45.544Z,11.87
2022-09-27T06:29:56.390Z,11.77
2022-09-27T06:33:17.656Z,11.69
2022-09-27T06:36:20.214Z,11.80
2022-09-27T06:39:18.164Z,11.55
2022-09-27T06:42:28.437Z,11.67
2022-09-27T06:45:48.357Z,11.68
2022-09-27T06:49:04.555Z,11.78
2022-09-27T06:52:03.809Z,11.78
2022-09-27T06:55:02.193Z,11.77
2022-09-27T06:58:21.209Z,11.89
2022-09-27T07:01:38.711Z,11.98
2022-09-27T07:04:56.322Z,11.75
2022-09-27T07:08:12.008Z,11.80
2022-09-27T07:11:09.653Z,11.93
2022-09-27T07:14:08.247Z,11.86
2022-09-27T07:17:05.399Z,11.84
2022-09-27T07:20:10.014Z,11.91
2022-09-27T07:23:08.066Z,11.74
2022-09-27T07:26:06.936Z,11.86
2022-09-27T07:29:04.400Z,11.91
2022-09-27T07:32:01.958Z,11.95
2022-09-27T07:34:59.586Z,11.66
2022-09-27T07:37:57.000Z,11.87
2022-09-27T07:40:54.891Z,11.75
2022-09-27T07:43:54.268Z,11.92
2022-09-27T07:46:52.529Z,11.99
2022-09-27T07:49:54.303Z,11.89
2022-09-27T07:53:06.483Z,11.77
2022-09-27T07:56:06.650Z,11.79
2022-09-27T07:59:04.439Z,11.93
2022-09-27T08:02:01.474Z,12.05
2022-09-27T08:05:00.126Z,12.13
2022-09-27T08:07:57.771Z,12.18
2022-09-27T08:10:56.441Z,12.20
2022-09-27T08:13:53.683Z,12.26
2022-09-27T08:16:54.687Z,12.30
2022-09-27T08:20:08.180Z,12.16
2022-09-27T08:23:34.599Z,11.97
2022-09-27T08:26:54.813Z,11.83
2022-09-27T08:30:03.613Z,11.97
2022-09-27T08:33:02.548Z,12.11
2022-09-27T08:35:59.510Z,12.16
2022-09-27T08:39:01.619Z,12.01
2022-09-27T08:42:42.350Z,12.23
2022-09-27T08:45:55.960Z,12.28
2022-09-27T08:48:57.620Z,12.41
2022-09-27T08:51:54.510Z,12.35
2022-09-27T08:54:53.768Z,12.31
2022-09-27T08:57:57.087Z,12.29
2022-09-27T09:01:06.634Z,12.46
2022-09-27T09:04:29.674Z,12.48
2022-09-27T09:07:52.500Z,12.52
2022-09-27T09:11:23.851Z,12.68
2022-09-27T09:14:27.445Z,12.57
2022-09-27T09:17:36.788Z,12.45
2022-09-27T09:21:24.163Z,12.52
2022-09-27T09:24:26.984Z,12.46
2022-09-27T09:27:27.259Z,12.52
2022-09-27T09:30:26.172Z,12.53
2022-09-27T09:33:35.242Z,12.49
2022-09-27T09:36:37.608Z,12.39
2022-09-27T09:40:13.805Z,12.32
2022-09-27T09:43:45.527Z,12.42
2022-09-27T09:46:45.889Z,12.42
2022-09-27T09:49:48.056Z,12.53
2022-09-27T09:52:55.471Z,12.58
2022-09-27T09:55:59.974Z,12.64
2022-09-27T09:59:02.642Z,12.75
2022-09-27T10:02:37.285Z,12.74
2022-09-27T10:05:44.300Z,12.73
2022-09-27T10:08:47.675Z,12.98
2022-09-27T10:12:10.744Z,12.98
2022-09-27T10:15:23.000Z,13.09
2022-09-27T10:18:20.853Z,12.96
2022-09-27T10:21:23.261Z,12.84
2022-09-27T10:24:20.726Z,12.73
2022-09-27T10:27:46.313Z,12.78
2022-09-27T10:30:46.667Z,12.93
2022-09-27T10:34:05.248Z,12.90
2022-09-27T10:37:12.801Z,13.00
2022-09-27T10:40:30.547Z,13.28
2022-09-27T10:43:33.591Z,13.56
2022-09-27T10:46:50.980Z,13.73
2022-09-27T10:50:06.901Z,13.78
2022-09-27T10:53:15.658Z,13.56
2022-09-27T10:56:21.783Z,13.74
2022-09-27T10:59:18.406Z,13.95
2022-09-27T11:02:23.156Z,13.91
2022-09-27T11:05:36.864Z,14.22
2022-09-27T11:08:34.111Z,14.43
2022-09-27T11:11:38.057Z,14.13
2022-09-27T11:14:35.810Z,13.90
2022-09-27T11:18:02.072Z,13.64
2022-09-27T11:21:18.851Z,13.23
2022-09-27T11:24:32.796Z,12.79
2022-09-27T11:27:30.622Z,12.56
2022-09-27T11:30:33.483Z,12.57
2022-09-27T11:34:00.438Z,12.50
2022-09-27T11:37:08.263Z,12.59
2022-09-27T11:40:08.673Z,12.64
2022-09-27T11:43:15.708Z,12.33
2022-09-27T11:46:38.594Z,12.26
2022-09-27T11:49:58.996Z,12.41
2022-09-27T11:52:58.782Z,12.53
2022-09-27T11:56:27.231Z,12.75
2022-09-27T11:59:47.658Z,12.86
2022-09-27T12:03:12.020Z,12.75
2022-09-27T12:06:16.920Z,12.72
2022-09-27T12:09:24.513Z,12.79
2022-09-27T12:12:26.486Z,12.87
2022-09-27T12:15:34.019Z,13.06
2022-09-27T12:18:35.731Z,13.31
2022-09-27T12:21:36.446Z,13.37
2022-09-27T12:24:34.192Z,13.23
2022-09-27T12:27:49.214Z,13.04
2022-09-27T12:31:05.351Z,12.86
2022-09-27T12:34:30.909Z,12.97
2022-09-27T12:37:58.133Z,12.97
2022-09-27T12:40:58.481Z,13.04
2022-09-27T12:44:05.948Z,13.32
2022-09-27T12:47:43.844Z,13.55
2022-09-27T12:50:59.693Z,13.46
2022-09-27T12:54:02.489Z,13.63
2022-09-27T12:57:02.506Z,13.94
2022-09-27T13:00:12.753Z,14.20
2022-09-27T13:03:44.926Z,13.85
2022-09-27T13:07:03.506Z,13.65
2022-09-27T13:10:05.287Z,13.82
2022-09-27T13:13:06.213Z,13.81
2022-09-27T13:16:04.184Z,13.77
2022-09-27T13:19:14.545Z,13.55
2022-09-27T13:22:26.914Z,13.43
2022-09-27T13:25:49.569Z,13.49
2022-09-27T13:29:02.249Z,13.29
2022-09-27T13:32:22.912Z,13.28
2022-09-27T13:35:36.708Z,13.15
2022-09-27T13:39:06.547Z,13.17
2022-09-27T13:42:30.554Z,13.03
2022-09-27T13:45:52.480Z,12.59
2022-09-27T13:49:18.200Z,12.55
2022-09-27T13:52:38.695Z,12.55
2022-09-27T13:55:45.750Z,12.42
2022-09-27T13:59:04.592Z,12.47
2022-09-27T14:02:27.773Z,12.69
2022-09-27T14:05:35.383Z,12.84
2022-09-27T14:08:32.978Z,13.08
2022-09-27T14:11:40.721Z,13.21
2022-09-27T14:14:37.831Z,13.22
2022-09-27T14:17:35.933Z,13.31
2022-09-27T14:20:38.788Z,13.10
2022-09-27T14:23:39.071Z,13.27
2022-09-27T14:26:36.889Z,13.41
2022-09-27T14:29:38.704Z,13.45
2022-09-27T14:32:48.174Z,13.52
2022-09-27T14:36:08.052Z,13.56
2022-09-27T14:39:21.562Z,13.43
2022-09-27T14:42:21.861Z,13.30
2022-09-27T14:45:22.440Z,13.42
2022-09-27T14:48:24.069Z,13.68
2022-09-27T14:51:27.003Z,13.71
2022-09-27T14:54:26.794Z,13.94
2022-09-27T14:57:24.154Z,14.05
2022-09-27T15:00:23.995Z,13.91
2022-09-27T15:03:25.936Z,13.73
2022-09-27T15:06:24.874Z,13.57
2022-09-27T15:09:22.120Z,13.54
2022-09-27T15:12:25.437Z,13.75
2022-09-27T15:15:24.487Z,13.71
2022-09-27T15:18:42.120Z,13.52
2022-09-27T15:21:39.072Z,13.39
2022-09-27T15:24:40.351Z,13.54
2022-09-27T15:27:38.755Z,13.54
2022-09-27T15:30:39.752Z,13.55
2022-09-27T15:33:36.925Z,13.64
2022-09-27T15:36:40.881Z,13.56
2022-09-27T15:39:39.151Z,13.45
2022-09-27T15:42:55.080Z,13.46
2022-09-27T15:45:52.800Z,13.39
2022-09-27T15:49:15.906Z,13.25
2022-09-27T15:52:13.777Z,13.19
2022-09-27T15:55:27.387Z,13.17
2022-09-27T15:58:25.646Z,12.97
2022-09-27T16:01:23.192Z,12.80
2022-09-27T16:04:20.246Z,12.71
2022-09-27T16:07:17.875Z,12.81
2022-09-27T16:10:46.227Z,12.82
2022-09-27T16:13:44.250Z,12.85
2022-09-27T16:16:43.093Z,12.76
2022-09-27T16:19:39.823Z,12.87
2022-09-27T16:22:37.151Z,12.83
2022-09-27T16:25:34.007Z,12.86
2022-09-27T16:28:32.132Z,12.81
2022-09-27T16:31:29.126Z,12.83
2022-09-27T16:34:25.978Z,12.81
2022-09-27T16:37:23.349Z,12.75
2022-09-27T16:40:20.850Z,12.83
2022-09-27T16:43:17.854Z,12.94
2022-09-27T16:46:18.752Z,13.01
2022-09-27T16:49:34.662Z,13.02
2022-09-27T16:52:33.189Z,13.13
2022-09-27T16:55:30.028Z,13.23
2022-09-27T16:58:29.117Z,13.33
2022-09-27T17:01:26.219Z,13.39
2022-09-27T17:04:23.504Z,13.44
2022-09-27T17:07:21.266Z,13.38
2022-09-27T17:10:19.502Z,13.40
2022-09-27T17:13:19.525Z,13.54
2022-09-27T17:16:17.273Z,13.61
2022-09-27T17:19:14.886Z,13.72
2022-09-27T17:22:12.162Z,13.69
2022-09-27T17:25:09.578Z,13.75
2022-09-27T17:28:07.571Z,13.64
2022-09-27T17:31:08.856Z,13.59
2022-09-27T17:34:06.951Z,13.57
2022-09-27T17:37:05.133Z,13.57
2022-09-27T17:40:02.232Z,13.55
2022-09-27T17:42:59.215Z,13.50
2022-09-27T17:45:56.089Z,13.43
2022-09-27T17:49:11.647Z,13.46
2022-09-27T17:52:08.941Z,13.49
2022-09-27T17:55:06.083Z,13.44
2022-09-27T17:58:04.042Z,13.28
2022-09-27T18:01:05.375Z,13.33
2022-09-27T18:04:04.377Z,13.36
2022-09-27T18:07:02.070Z,13.30
2022-09-27T18:09:59.488Z,13.30
2022-09-27T18:12:56.916Z,13.36
2022-09-27T18:16:00.245Z,13.16
2022-09-27T18:18:58.992Z,13.09
2022-09-27T18:21:56.192Z,13.12
2022-09-27T18:24:53.079Z,13.17
2022-09-27T18:27:52.238Z,13.22
2022-09-27T18:30:49.425Z,13.25
2022-09-27T18:33:47.464Z,13.23
2022-09-27T18:36:45.196Z,13.27
2022-09-27T18:39:42.109Z,13.28
2022-09-27T18:42:39.361Z,13.28
2022-09-27T18:45:37.642Z,13.32
2022-09-27T18:48:35.949Z,13.41
2022-09-27T18:51:33.549Z,13.43
2022-09-27T18:54:31.312Z,13.35
2022-09-27T18:57:28.378Z,13.47
2022-09-27T19:00:26.320Z,13.52
2022-09-27T19:03:23.217Z,13.54
2022-09-27T19:06:23.356Z,13.43
2022-09-27T19:09:20.165Z,13.33
2022-09-27T19:12:16.987Z,13.29
2022-09-27T19:15:14.144Z,13.37
2022-09-27T19:18:11.062Z,13.26
2022-09-27T19:21:11.749Z,13.20
2022-09-27T19:24:08.948Z,13.15
2022-09-27T19:27:05.837Z,13.11
2022-09-27T19:30:07.603Z,13.20
2022-09-27T19:33:05.027Z,13.24
2022-09-27T19:36:04.343Z,13.30
2022-09-27T19:39:02.355Z,13.19
2022-09-27T19:41:59.180Z,13.19
2022-09-27T19:44:56.389Z,13.28
2022-09-27T19:47:54.771Z,13.28
2022-09-27T19:50:59.860Z,13.30
2022-09-27T19:53:57.025Z,13.26
2022-09-27T19:56:54.321Z,13.08
2022-09-27T19:59:51.212Z,13.05
2022-09-27T20:02:48.520Z,13.02
2022-09-27T20:05:55.099Z,13.01
2022-09-27T20:08:55.792Z,12.93
2022-09-27T20:11:53.120Z,12.98
2022-09-27T20:14:50.318Z,12.82
2022-09-27T20:17:47.426Z,12.64
2022-09-27T20:20:44.242Z,12.52
2022-09-27T20:23:41.201Z,12.37
2022-09-27T20:26:38.109Z,12.24
2022-09-27T20:29:35.172Z,12.21
2022-09-27T20:32:33.689Z,12.11
2022-09-27T20:35:31.329Z,12.12
2022-09-27T20:38:28.026Z,12.09
2022-09-27T20:41:25.927Z,12.01
2022-09-27T20:44:23.120Z,11.94
2022-09-27T20:47:21.201Z,12.04
2022-09-27T20:50:18.427Z,12.16
2022-09-27T20:53:14.948Z,12.23
2022-09-27T20:56:17.301Z,12.23
2022-09-27T20:59:17.231Z,12.06
2022-09-27T21:02:14.378Z,11.88
2022-09-27T21:05:11.770Z,11.72
2022-09-27T21:08:08.860Z,11.79
2022-09-27T21:11:13.545Z,11.86
2022-09-27T21:14:11.327Z,11.88
2022-09-27T21:17:08.562Z,11.88
2022-09-27T21:20:06.096Z,11.90
2022-09-27T21:23:03.198Z,11.88
2022-09-27T21:26:03.936Z,11.66
2022-09-27T21:29:01.873Z,11.59
2022-09-27T21:31:59.119Z,11.53
2022-09-27T21:34:56.208Z,11.74
2022-09-27T21:37:55.756Z,11.78
2022-09-27T21:41:12.106Z,11.73
2022-09-27T21:44:10.495Z,11.68
2022-09-27T21:47:07.200Z,11.75
2022-09-27T21:50:04.305Z,11.75
2022-09-27T21:53:01.338Z,11.67
2022-09-27T21:55:58.364Z,11.42
2022-09-27T21:58:54.864Z,11.36
2022-09-27T22:01:52.556Z,11.32
2022-09-27T22:04:50.583Z,11.39
2022-09-27T22:07:47.726Z,11.40
2022-09-27T22:10:45.568Z,11.37
2022-09-27T22:13:43.296Z,11.29
2022-09-27T22:16:40.002Z,11.26
2022-09-27T22:19:37.123Z,11.27
2022-09-27T22:22:34.200Z,11.25
2022-09-27T22:25:31.518Z,11.24
2022-09-27T22:28:29.276Z,11.20
2022-09-27T22:31:26.639Z,11.05
2022-09-27T22:34:29.147Z,11.01
2022-09-27T22:37:26.015Z,10.90
2022-09-27T22:40:23.480Z,10.83
2022-09-27T22:43:20.475Z,10.68
2022-09-27T22:46:17.484Z,10.72
2022-09-27T22:49:14.273Z,10.77
2022-09-27T22:52:11.661Z,10.68
2022-09-27T22:55:09.571Z,10.55
2022-09-27T22:58:06.350Z,10.48
2022-09-27T23:01:10.747Z,10.34
2022-09-27T23:04:09.279Z,10.29
2022-09-27T23:07:06.931Z,10.21
2022-09-27T23:10:04.267Z,10.33
2022-09-27T23:13:01.989Z,10.49
2022-09-27T23:16:03.603Z,10.50
2022-09-27T23:19:00.162Z,10.41
2022-09-27T23:21:57.787Z,10.45
2022-09-27T23:24:55.851Z,10.48
2022-09-27T23:27:54.117Z,10.35
2022-09-27T23:30:51.306Z,10.15
2022-09-27T23:33:48.630Z,10.37
2022-09-27T23:36:46.306Z,10.30
2022-09-27T23:39:43.174Z,10.36
2022-09-27T23:42:40.090Z,10.36
2022-09-27T23:45:37.569Z,10.22
2022-09-27T23:48:35.077Z,10.04
2022-09-27T23:51:32.198Z,10.19
2022-09-27T23:54:29.308Z,10.20
2022-09-27T23:57:26.180Z,10.39
